Terminal Aerodrome Forecast
Issued by NWS Charleston, WV

Current Version | Previous Version | Graphics & Text | Print | Product List | Glossary On
Versions: 1 2 3 4 5 6 7 8 9 10 11 12 13 14 15 16 17 18 19 20 21 22 23 24 25
000
FTUS41 KRLX 230600 RRA
TAFCRW
TAF
KCRW 230609Z 2306/2406 00000KT 5SM BR OVC006
      TEMPO 2310/2312 2SM BR SCT001
     FM231300 00000KT 4SM BR OVC012
     FM231500 VRB03KT P6SM BKN020
     FM231800 VRB03KT P6SM BKN025
     FM240300 VRB03KT 5SM BR BKN035=

USA.gov is the U.S. government's official web portal to all federal, state and local government web resources and services.